createdAt,value
2018-07-15T00:00:07.862Z,978.55
2018-07-15T00:01:08.106Z,978.48
2018-07-15T00:02:08.350Z,978.47
2018-07-15T00:03:08.600Z,978.49
2018-07-15T00:04:08.840Z,978.47
2018-07-15T00:05:09.086Z,978.47
2018-07-15T00:06:09.329Z,978.50
2018-07-15T00:07:09.575Z,978.50
2018-07-15T00:08:09.820Z,978.50
2018-07-15T00:09:10.063Z,978.48
2018-07-15T00:10:10.308Z,978.49
2018-07-15T00:11:10.549Z,978.52
2018-07-15T00:12:10.792Z,978.50
2018-07-15T00:13:11.037Z,978.51
2018-07-15T00:14:11.283Z,978.49
2018-07-15T00:15:11.524Z,978.52
2018-07-15T00:16:11.769Z,978.49
2018-07-15T00:17:12.016Z,978.54
2018-07-15T00:18:12.258Z,978.48
2018-07-15T00:19:12.501Z,978.53
2018-07-15T00:20:12.747Z,978.50
2018-07-15T00:21:12.991Z,978.54
2018-07-15T00:22:13.234Z,978.54
2018-07-15T00:23:13.478Z,978.55
2018-07-15T00:24:13.722Z,978.57
2018-07-15T00:25:13.969Z,978.53
2018-07-15T00:26:14.209Z,978.54
2018-07-15T00:27:14.454Z,978.55
2018-07-15T00:28:14.697Z,978.54
2018-07-15T00:29:14.943Z,978.53
2018-07-15T00:30:15.185Z,978.54
2018-07-15T00:31:15.427Z,978.54
2018-07-15T00:32:15.672Z,978.51
2018-07-15T00:33:15.915Z,978.52
2018-07-15T00:34:16.157Z,978.50
2018-07-15T00:35:16.401Z,978.53
2018-07-15T00:36:16.644Z,978.52
2018-07-15T00:37:16.887Z,978.52
2018-07-15T00:38:17.132Z,978.55
2018-07-15T00:39:17.377Z,978.51
2018-07-15T00:40:17.620Z,978.52
2018-07-15T00:41:17.863Z,978.54
2018-07-15T00:42:18.109Z,978.49
2018-07-15T00:43:18.353Z,978.51
2018-07-15T00:44:18.594Z,978.52
2018-07-15T00:45:18.839Z,978.48
2018-07-15T00:46:19.083Z,978.44
2018-07-15T00:47:19.326Z,978.48
2018-07-15T00:48:19.571Z,978.45
2018-07-15T00:49:19.814Z,978.45
2018-07-15T00:50:20.058Z,978.48
2018-07-15T00:51:20.302Z,978.47
2018-07-15T00:52:20.545Z,978.49
2018-07-15T00:53:20.790Z,978.46
2018-07-15T00:54:21.034Z,978.45
2018-07-15T00:55:21.299Z,978.45
2018-07-15T00:56:21.524Z,978.44
2018-07-15T00:57:21.764Z,978.44
2018-07-15T00:58:22.009Z,978.45
2018-07-15T00:59:22.251Z,978.46
2018-07-15T01:00:22.497Z,978.44
2018-07-15T01:01:22.743Z,978.42
2018-07-15T01:02:22.986Z,978.42
2018-07-15T01:03:23.225Z,978.38
2018-07-15T01:04:23.469Z,978.35
2018-07-15T01:05:23.713Z,978.36
2018-07-15T01:06:23.956Z,978.36
2018-07-15T01:07:24.198Z,978.39
2018-07-15T01:08:24.441Z,978.32
2018-07-15T01:09:24.681Z,978.35
2018-07-15T01:10:24.925Z,978.33
2018-07-15T01:11:25.171Z,978.34
2018-07-15T01:12:25.413Z,978.33
2018-07-15T01:13:25.656Z,978.33
2018-07-15T01:14:25.898Z,978.29
2018-07-15T01:15:26.142Z,978.32
2018-07-15T01:16:26.386Z,978.31
2018-07-15T01:17:26.629Z,978.33
2018-07-15T01:18:26.871Z,978.31
2018-07-15T01:19:27.116Z,978.34
2018-07-15T01:20:27.359Z,978.30
2018-07-15T01:21:27.603Z,978.32
2018-07-15T01:22:27.846Z,978.33
2018-07-15T01:23:28.087Z,978.27
2018-07-15T01:24:28.330Z,978.34
2018-07-15T01:25:28.573Z,978.34
2018-07-15T01:26:28.816Z,978.33
2018-07-15T01:27:29.056Z,978.33
2018-07-15T01:28:29.302Z,978.34
2018-07-15T01:29:29.544Z,978.36
2018-07-15T01:30:29.788Z,978.32
2018-07-15T01:31:30.032Z,978.32
2018-07-15T01:32:30.275Z,978.36
2018-07-15T01:33:30.517Z,978.34
2018-07-15T01:34:30.761Z,978.36
2018-07-15T01:35:31.005Z,978.33
2018-07-15T01:36:31.250Z,978.33
2018-07-15T01:37:31.491Z,978.27
2018-07-15T01:38:31.734Z,978.28
2018-07-15T01:39:31.976Z,978.26
2018-07-15T01:40:32.219Z,978.27
2018-07-15T01:41:32.462Z,978.24
2018-07-15T01:42:32.706Z,978.24
2018-07-15T01:43:32.948Z,978.21
2018-07-15T01:44:33.189Z,978.21
2018-07-15T01:45:33.433Z,978.19
2018-07-15T01:46:33.676Z,978.20
2018-07-15T01:47:33.918Z,978.18
2018-07-15T01:48:34.162Z,978.20
2018-07-15T01:49:34.406Z,978.20
2018-07-15T01:50:34.650Z,978.20
2018-07-15T01:51:34.891Z,978.22
2018-07-15T01:52:35.153Z,978.22
2018-07-15T01:53:35.376Z,978.18
2018-07-15T01:54:35.618Z,978.18
2018-07-15T01:55:35.879Z,978.17
2018-07-15T01:56:36.104Z,978.14
2018-07-15T01:57:36.348Z,978.18
2018-07-15T01:58:36.590Z,978.16
2018-07-15T01:59:36.831Z,978.17
2018-07-15T02:00:37.075Z,978.11
2018-07-15T02:01:37.318Z,978.13
2018-07-15T02:02:37.560Z,978.14
2018-07-15T02:03:37.804Z,978.12
2018-07-15T02:04:38.047Z,978.11
2018-07-15T02:05:38.289Z,978.11
2018-07-15T02:06:38.532Z,978.11
2018-07-15T02:07:38.775Z,978.09
2018-07-15T02:08:39.017Z,978.11
2018-07-15T02:09:39.260Z,978.10
2018-07-15T02:10:39.502Z,978.09
2018-07-15T02:11:39.745Z,978.10
2018-07-15T02:12:39.990Z,978.11
2018-07-15T02:13:40.231Z,978.15
2018-07-15T02:14:40.474Z,978.12
2018-07-15T02:15:40.716Z,978.14
2018-07-15T02:16:40.958Z,978.16
2018-07-15T02:17:41.203Z,978.11
2018-07-15T02:18:41.444Z,978.10
2018-07-15T02:19:41.684Z,978.14
2018-07-15T02:20:41.928Z,978.12
2018-07-15T02:21:42.168Z,978.16
2018-07-15T02:22:42.411Z,978.12
2018-07-15T02:23:42.655Z,978.14
2018-07-15T02:24:42.897Z,978.10
2018-07-15T02:25:43.140Z,978.12
2018-07-15T02:26:43.381Z,978.09
2018-07-15T02:27:43.625Z,978.08
2018-07-15T02:28:43.868Z,978.08
2018-07-15T02:29:44.109Z,978.08
2018-07-15T02:30:44.354Z,978.06
2018-07-15T02:31:44.595Z,978.05
2018-07-15T02:32:44.837Z,978.07
2018-07-15T02:33:45.078Z,978.05
2018-07-15T02:34:45.322Z,978.03
2018-07-15T02:35:45.562Z,978.05
2018-07-15T02:36:45.882Z,978.04
2018-07-15T02:37:46.047Z,978.04
2018-07-15T02:38:46.290Z,978.05
2018-07-15T02:39:46.531Z,978.06
2018-07-15T02:40:46.774Z,978.04
2018-07-15T02:41:47.016Z,978.08
2018-07-15T02:42:47.259Z,978.06
2018-07-15T02:43:47.501Z,978.09
2018-07-15T02:44:47.748Z,978.07
2018-07-15T02:45:47.985Z,978.05
2018-07-15T02:46:48.230Z,978.03
2018-07-15T02:47:48.472Z,978.02
2018-07-15T02:48:48.714Z,978.02
2018-07-15T02:49:48.959Z,978.03
2018-07-15T02:50:49.202Z,978.01
2018-07-15T02:51:49.443Z,978.03
2018-07-15T02:52:49.685Z,978.03
2018-07-15T02:53:49.931Z,978.03
2018-07-15T02:54:50.171Z,978.05
2018-07-15T02:55:50.414Z,978.01
2018-07-15T02:56:50.664Z,978.02
2018-07-15T02:57:50.898Z,978.03
2018-07-15T02:58:51.155Z,978.05
2018-07-15T02:59:51.384Z,978.06
2018-07-15T03:00:51.628Z,978.00
2018-07-15T03:01:51.869Z,978.01
2018-07-15T03:02:52.114Z,978.02
2018-07-15T03:03:52.356Z,978.01
2018-07-15T03:04:52.598Z,978.06
2018-07-15T03:05:52.842Z,978.03
2018-07-15T03:06:53.084Z,978.02
2018-07-15T03:07:53.325Z,978.03
2018-07-15T03:08:53.567Z,978.01
2018-07-15T03:09:53.808Z,977.98
2018-07-15T03:10:54.051Z,978.00
2018-07-15T03:11:54.292Z,977.98
2018-07-15T03:12:54.537Z,977.99
2018-07-15T03:13:54.777Z,977.92
2018-07-15T03:14:55.020Z,977.97
2018-07-15T03:15:55.262Z,977.94
2018-07-15T03:16:55.505Z,977.93
2018-07-15T03:17:55.749Z,977.91
2018-07-15T03:18:55.991Z,977.88
2018-07-15T03:19:56.233Z,977.91
2018-07-15T03:20:56.476Z,977.92
2018-07-15T03:21:56.717Z,977.89
2018-07-15T03:22:56.960Z,977.89
2018-07-15T03:23:57.202Z,977.88
2018-07-15T03:24:57.445Z,977.88
2018-07-15T03:25:57.689Z,977.86
2018-07-15T03:26:57.930Z,977.85
2018-07-15T03:27:58.172Z,977.86
2018-07-15T03:28:58.418Z,977.89
2018-07-15T03:29:58.659Z,977.89
2018-07-15T03:30:58.904Z,977.87
2018-07-15T03:31:59.158Z,977.87
2018-07-15T03:32:59.389Z,977.84
2018-07-15T03:33:59.653Z,977.86
2018-07-15T03:34:59.877Z,977.83
2018-07-15T03:36:00.120Z,977.84
2018-07-15T03:37:00.363Z,977.87
2018-07-15T03:38:00.604Z,977.86
2018-07-15T03:39:00.846Z,977.85
2018-07-15T03:40:01.093Z,977.85
2018-07-15T03:41:01.330Z,977.84
2018-07-15T03:42:01.574Z,977.86
2018-07-15T03:43:01.815Z,977.88
2018-07-15T03:44:02.058Z,977.86
2018-07-15T03:45:02.299Z,977.87
2018-07-15T03:46:02.542Z,977.88
2018-07-15T03:47:02.784Z,977.86
2018-07-15T03:48:03.028Z,977.85
2018-07-15T03:49:03.269Z,977.88
2018-07-15T03:50:03.510Z,977.88
2018-07-15T03:51:03.753Z,977.85
2018-07-15T03:52:03.996Z,977.87
2018-07-15T03:53:04.238Z,977.86
2018-07-15T03:54:04.478Z,977.84
2018-07-15T03:55:04.719Z,977.87
2018-07-15T03:56:04.963Z,977.88
2018-07-15T03:57:05.207Z,977.87
2018-07-15T03:58:05.447Z,977.90
2018-07-15T03:59:05.689Z,977.90
2018-07-15T04:00:05.930Z,977.89
2018-07-15T04:01:06.175Z,977.89
2018-07-15T04:02:06.414Z,977.86
2018-07-15T04:03:06.657Z,977.88
2018-07-15T04:04:06.899Z,977.84
2018-07-15T04:05:07.142Z,977.88
2018-07-15T04:06:07.385Z,977.89
2018-07-15T04:07:07.629Z,977.89
2018-07-15T04:08:07.873Z,977.90
2018-07-15T04:09:08.115Z,977.88
2018-07-15T04:10:08.357Z,977.91
2018-07-15T04:11:08.599Z,977.88
2018-07-15T04:12:08.846Z,977.89
2018-07-15T04:13:09.086Z,977.91
2018-07-15T04:14:09.327Z,977.90
2018-07-15T04:15:09.570Z,977.87
2018-07-15T04:16:09.814Z,977.87
2018-07-15T04:17:10.056Z,977.89
2018-07-15T04:18:10.299Z,977.88
2018-07-15T04:19:10.542Z,977.84
2018-07-15T04:20:10.785Z,977.87
2018-07-15T04:21:11.026Z,977.85
2018-07-15T04:22:11.269Z,977.80
2018-07-15T04:23:11.511Z,977.83
2018-07-15T04:24:11.756Z,977.82
2018-07-15T04:25:11.997Z,977.82
2018-07-15T04:26:12.239Z,977.86
2018-07-15T04:27:12.482Z,977.83
2018-07-15T04:28:12.781Z,977.87
2018-07-15T04:29:12.967Z,977.81
2018-07-15T04:30:13.210Z,977.82
2018-07-15T04:31:13.451Z,977.81
2018-07-15T04:32:13.697Z,977.80
2018-07-15T04:33:13.937Z,977.79
2018-07-15T04:34:14.192Z,977.80
2018-07-15T04:35:14.423Z,977.78
2018-07-15T04:36:14.671Z,977.78
2018-07-15T04:37:14.915Z,977.77
2018-07-15T04:38:15.154Z,977.74
2018-07-15T04:39:15.396Z,977.76
2018-07-15T04:40:15.638Z,977.78
2018-07-15T04:41:15.882Z,977.78
2018-07-15T04:42:16.124Z,977.76
2018-07-15T04:43:16.366Z,977.79
2018-07-15T04:44:16.608Z,977.77
2018-07-15T04:45:16.851Z,977.72
2018-07-15T04:46:17.093Z,977.74
2018-07-15T04:47:17.336Z,977.73
2018-07-15T04:48:17.578Z,977.76
2018-07-15T04:49:17.843Z,977.74
2018-07-15T04:50:18.066Z,977.71
2018-07-15T04:51:18.309Z,977.72
2018-07-15T04:52:18.553Z,977.73
2018-07-15T04:53:18.795Z,977.73
2018-07-15T04:54:19.039Z,977.74
2018-07-15T04:55:19.285Z,977.72
2018-07-15T04:56:19.527Z,977.75
2018-07-15T04:57:19.770Z,977.78
2018-07-15T04:58:20.011Z,977.74
2018-07-15T04:59:20.254Z,977.77
2018-07-15T05:00:20.497Z,977.78
2018-07-15T05:01:20.745Z,977.74
2018-07-15T05:02:20.987Z,977.73
2018-07-15T05:03:21.226Z,977.75
2018-07-15T05:04:21.473Z,977.74
2018-07-15T05:05:21.717Z,977.76
2018-07-15T05:06:21.963Z,977.79
2018-07-15T05:07:22.202Z,977.77
2018-07-15T05:08:22.445Z,977.79
2018-07-15T05:09:22.689Z,977.73
2018-07-15T05:10:22.932Z,977.82
2018-07-15T05:11:23.233Z,977.77
2018-07-15T05:12:23.422Z,977.77
2018-07-15T05:13:23.666Z,977.78
2018-07-15T05:14:23.911Z,977.78
2018-07-15T05:15:24.154Z,977.82
2018-07-15T05:16:24.399Z,977.84
2018-07-15T05:17:24.646Z,977.83
2018-07-15T05:18:24.896Z,977.85
2018-07-15T05:19:25.130Z,977.85
2018-07-15T05:20:25.375Z,977.85
2018-07-15T05:21:25.620Z,977.88
2018-07-15T05:22:25.864Z,977.89
2018-07-15T05:23:26.105Z,977.89
2018-07-15T05:24:26.352Z,977.86
2018-07-15T05:25:26.594Z,977.93
2018-07-15T05:26:26.838Z,977.86
2018-07-15T05:27:27.080Z,977.89
2018-07-15T05:28:27.324Z,977.86
2018-07-15T05:29:27.569Z,977.88
2018-07-15T05:30:27.812Z,977.86
2018-07-15T05:31:28.056Z,977.85
2018-07-15T05:32:28.301Z,977.83
2018-07-15T05:33:28.548Z,977.86
2018-07-15T05:34:28.792Z,977.88
2018-07-15T05:35:29.037Z,977.86
2018-07-15T05:36:29.281Z,977.83
2018-07-15T05:37:29.525Z,977.85
2018-07-15T05:38:29.772Z,977.87
2018-07-15T05:39:30.013Z,977.87
2018-07-15T05:40:30.258Z,977.88
2018-07-15T05:41:30.502Z,977.91
2018-07-15T05:42:30.744Z,977.96
2018-07-15T05:43:30.987Z,977.90
2018-07-15T05:44:31.235Z,977.91
2018-07-15T05:45:31.474Z,977.89
2018-07-15T05:46:31.716Z,977.92
2018-07-15T05:47:31.961Z,977.88
2018-07-15T05:48:32.205Z,977.89
2018-07-15T05:49:32.449Z,977.87
2018-07-15T05:50:32.694Z,977.88
2018-07-15T05:51:32.939Z,977.89
2018-07-15T05:52:33.185Z,977.89
2018-07-15T05:53:33.428Z,977.84
2018-07-15T05:54:33.672Z,977.88
2018-07-15T05:55:33.919Z,977.88
2018-07-15T05:56:34.161Z,977.88
2018-07-15T05:57:34.405Z,977.90
2018-07-15T05:58:34.649Z,977.89
2018-07-15T05:59:34.892Z,977.90
2018-07-15T06:00:35.136Z,977.89
2018-07-15T06:01:35.380Z,977.89
2018-07-15T06:02:35.624Z,977.87
2018-07-15T06:03:35.892Z,977.90
2018-07-15T06:04:36.115Z,977.89
2018-07-15T06:05:36.360Z,977.87
2018-07-15T06:06:36.603Z,977.90
2018-07-15T06:07:36.848Z,977.89
2018-07-15T06:08:37.092Z,977.94
2018-07-15T06:09:37.341Z,977.88
2018-07-15T06:10:37.592Z,977.95
2018-07-15T06:11:37.826Z,977.94
2018-07-15T06:12:38.071Z,977.98
2018-07-15T06:13:38.316Z,978.00
2018-07-15T06:14:38.560Z,977.99
2018-07-15T06:15:38.808Z,977.99
2018-07-15T06:16:39.055Z,977.99
2018-07-15T06:17:39.300Z,977.97
2018-07-15T06:18:39.547Z,977.99
2018-07-15T06:19:39.788Z,978.02
2018-07-15T06:20:40.035Z,978.00
2018-07-15T06:21:40.276Z,978.05
2018-07-15T06:22:40.584Z,978.02
2018-07-15T06:23:40.766Z,978.06
2018-07-15T06:24:41.010Z,978.05
2018-07-15T06:25:41.255Z,978.06
2018-07-15T06:26:41.499Z,978.03
2018-07-15T06:27:41.745Z,978.07
2018-07-15T06:28:41.990Z,978.09
2018-07-15T06:29:42.234Z,978.11
2018-07-15T06:30:42.479Z,978.09
2018-07-15T06:31:42.734Z,978.07
2018-07-15T06:32:42.970Z,978.09
2018-07-15T06:33:43.214Z,978.11
2018-07-15T06:34:43.459Z,978.04
2018-07-15T06:35:43.703Z,978.08
2018-07-15T06:36:43.948Z,978.06
2018-07-15T06:37:44.194Z,978.09
2018-07-15T06:38:44.440Z,978.05
2018-07-15T06:39:44.684Z,978.08
2018-07-15T06:40:44.927Z,978.11
2018-07-15T06:41:45.173Z,978.12
2018-07-15T06:42:45.420Z,978.13
2018-07-15T06:43:45.665Z,978.13
2018-07-15T06:44:45.911Z,978.13
2018-07-15T06:45:46.156Z,978.15
2018-07-15T06:46:46.405Z,978.16
2018-07-15T06:47:46.648Z,978.11
2018-07-15T06:48:46.893Z,978.10
2018-07-15T06:49:47.139Z,978.11
2018-07-15T06:50:47.389Z,978.15
2018-07-15T06:51:47.629Z,978.12
2018-07-15T06:52:47.874Z,978.12
2018-07-15T06:53:48.121Z,978.10
2018-07-15T06:54:48.365Z,978.10
2018-07-15T06:55:48.639Z,978.12
2018-07-15T06:56:48.856Z,978.13
2018-07-15T06:57:49.104Z,978.10
2018-07-15T06:58:49.349Z,978.13
2018-07-15T06:59:49.595Z,978.12
2018-07-15T07:00:49.843Z,978.16
2018-07-15T07:01:50.088Z,978.13
2018-07-15T07:02:50.336Z,978.11
2018-07-15T07:03:50.583Z,978.10
2018-07-15T07:04:50.826Z,978.12
2018-07-15T07:05:51.073Z,978.10
2018-07-15T07:06:51.318Z,978.14
2018-07-15T07:07:51.565Z,978.17
2018-07-15T07:08:51.810Z,978.17
2018-07-15T07:09:52.055Z,978.20
2018-07-15T07:10:52.300Z,978.17
2018-07-15T07:11:52.547Z,978.21
2018-07-15T07:12:52.796Z,978.22
2018-07-15T07:13:53.038Z,978.20
2018-07-15T07:14:53.284Z,978.20
2018-07-15T07:15:53.529Z,978.20
2018-07-15T07:16:53.776Z,978.20
2018-07-15T07:17:54.021Z,978.22
2018-07-15T07:18:54.271Z,978.21
2018-07-15T07:19:54.517Z,978.19
2018-07-15T07:20:54.767Z,978.25
2018-07-15T07:21:55.020Z,978.20
2018-07-15T07:22:55.270Z,978.26
2018-07-15T07:23:55.511Z,978.26
2018-07-15T07:24:55.758Z,978.27
2018-07-15T07:25:56.007Z,978.22
2018-07-15T07:26:56.255Z,978.22
2018-07-15T07:27:56.501Z,978.22
2018-07-15T07:28:56.789Z,978.25
2018-07-15T07:29:56.995Z,978.25
2018-07-15T07:30:57.240Z,978.21
2018-07-15T07:31:57.494Z,978.25
2018-07-15T07:32:57.731Z,978.20
2018-07-15T07:33:57.981Z,978.23
2018-07-15T07:34:58.228Z,978.22
2018-07-15T07:35:58.478Z,978.23
2018-07-15T07:36:58.727Z,978.25
2018-07-15T07:37:58.976Z,978.27
2018-07-15T07:38:59.224Z,978.23
2018-07-15T07:39:59.474Z,978.25
2018-07-15T07:40:59.724Z,978.27
2018-07-15T07:41:59.972Z,978.28
2018-07-15T07:43:00.221Z,978.25
2018-07-15T07:44:00.470Z,978.26
2018-07-15T07:45:00.721Z,978.23
2018-07-15T07:46:00.971Z,978.24
2018-07-15T07:47:01.268Z,978.25
2018-07-15T07:48:01.490Z,978.23
2018-07-15T07:49:01.712Z,978.24
2018-07-15T07:50:01.972Z,978.24
2018-07-15T07:51:02.223Z,978.23
2018-07-15T07:52:02.480Z,978.29
2018-07-15T07:53:02.728Z,978.20
2018-07-15T07:54:02.980Z,978.23
2018-07-15T07:55:03.231Z,978.26
2018-07-15T07:56:03.482Z,978.27
2018-07-15T07:57:03.734Z,978.25
2018-07-15T07:58:03.984Z,978.24
2018-07-15T07:59:04.235Z,978.22
2018-07-15T08:00:04.489Z,978.24
2018-07-15T08:01:04.743Z,978.19
2018-07-15T08:02:05.087Z,978.20
2018-07-15T08:03:05.245Z,978.20
2018-07-15T08:04:05.501Z,978.22
2018-07-15T08:05:05.750Z,978.21
2018-07-15T08:06:06.010Z,978.17
2018-07-15T08:07:06.255Z,978.17
2018-07-15T08:08:06.510Z,978.23
2018-07-15T08:09:06.759Z,978.19
2018-07-15T08:10:07.011Z,978.22
2018-07-15T08:11:07.263Z,978.25
2018-07-15T08:12:07.514Z,978.22
2018-07-15T08:13:07.769Z,978.22
2018-07-15T08:14:08.021Z,978.25
2018-07-15T08:15:08.283Z,978.19
2018-07-15T08:16:08.527Z,978.24
2018-07-15T08:17:08.782Z,978.24
2018-07-15T08:18:09.036Z,978.27
2018-07-15T08:19:09.292Z,978.28
2018-07-15T08:20:09.542Z,978.28
2018-07-15T08:21:09.796Z,978.27
2018-07-15T08:22:10.048Z,978.24
2018-07-15T08:23:10.304Z,978.26
2018-07-15T08:24:10.558Z,978.27
2018-07-15T08:25:10.810Z,978.24
2018-07-15T08:26:11.065Z,978.21
2018-07-15T08:27:11.321Z,978.23
2018-07-15T08:28:11.634Z,978.24
2018-07-15T08:29:11.826Z,978.28
2018-07-15T08:30:12.080Z,978.29
2018-07-15T08:31:12.337Z,978.27
2018-07-15T08:32:12.589Z,978.32
2018-07-15T08:33:12.843Z,978.29
2018-07-15T08:34:13.097Z,978.32
2018-07-15T08:35:13.354Z,978.32
2018-07-15T08:36:13.610Z,978.33
2018-07-15T08:37:13.859Z,978.37
2018-07-15T08:38:14.113Z,978.31
2018-07-15T08:39:14.366Z,978.36
2018-07-15T08:40:14.622Z,978.36
2018-07-15T08:41:14.875Z,978.33
2018-07-15T08:42:15.129Z,978.36
2018-07-15T08:43:15.383Z,978.32
2018-07-15T08:44:15.637Z,978.37
2018-07-15T08:45:15.891Z,978.33
2018-07-15T08:46:16.145Z,978.32
2018-07-15T08:47:16.399Z,978.36
2018-07-15T08:48:16.657Z,978.36
2018-07-15T08:49:16.913Z,978.35
2018-07-15T08:50:17.164Z,978.39
2018-07-15T08:51:17.419Z,978.40
2018-07-15T08:52:17.674Z,978.37
2018-07-15T08:53:17.927Z,978.36
2018-07-15T08:54:18.182Z,978.32
2018-07-15T08:55:18.434Z,978.38
2018-07-15T08:56:18.692Z,978.32
2018-07-15T08:57:18.944Z,978.32
2018-07-15T08:58:19.197Z,978.35
2018-07-15T08:59:19.455Z,978.40
2018-07-15T09:00:19.710Z,978.38
2018-07-15T09:01:19.962Z,978.33
2018-07-15T09:02:20.218Z,978.29
2018-07-15T09:03:20.525Z,978.36
2018-07-15T09:04:20.727Z,978.36
2018-07-15T09:05:20.982Z,978.37
2018-07-15T09:06:21.235Z,978.34
2018-07-15T09:07:21.491Z,978.40
2018-07-15T09:08:21.745Z,978.37
2018-07-15T09:09:21.999Z,978.37
2018-07-15T09:10:22.255Z,978.38
2018-07-15T09:11:22.509Z,978.39
2018-07-15T09:12:22.762Z,978.36
2018-07-15T09:13:23.019Z,978.39
2018-07-15T09:14:23.274Z,978.40
2018-07-15T09:15:23.530Z,978.34
2018-07-15T09:16:23.785Z,978.33
2018-07-15T09:17:24.040Z,978.38
2018-07-15T09:18:24.309Z,978.34
2018-07-15T09:19:24.551Z,978.32
2018-07-15T09:20:24.808Z,978.34
2018-07-15T09:21:25.066Z,978.37
2018-07-15T09:22:25.320Z,978.36
2018-07-15T09:23:25.573Z,978.39
2018-07-15T09:24:25.825Z,978.33
2018-07-15T09:25:26.082Z,978.36
2018-07-15T09:26:26.336Z,978.34
2018-07-15T09:27:26.591Z,978.37
2018-07-15T09:28:26.847Z,978.37
2018-07-15T09:29:27.103Z,978.36
2018-07-15T09:30:27.358Z,978.35
2018-07-15T09:31:27.614Z,978.37
2018-07-15T09:32:27.872Z,978.33
2018-07-15T09:33:28.127Z,978.33
2018-07-15T09:34:28.385Z,978.31
2018-07-15T09:35:28.646Z,978.39
2018-07-15T09:36:28.897Z,978.40
2018-07-15T09:37:29.151Z,978.42
2018-07-15T09:38:29.404Z,978.40
2018-07-15T09:39:29.659Z,978.40
2018-07-15T09:40:29.914Z,978.33
2018-07-15T09:41:30.170Z,978.27
2018-07-15T09:42:30.427Z,978.34
2018-07-15T09:43:30.679Z,978.39
2018-07-15T09:44:30.934Z,978.41
2018-07-15T09:45:31.189Z,978.42
2018-07-15T09:46:31.443Z,978.44
2018-07-15T09:47:31.697Z,978.38
2018-07-15T09:48:31.952Z,978.42
2018-07-15T09:49:32.206Z,978.39
2018-07-15T09:50:32.462Z,978.37
2018-07-15T09:51:32.716Z,978.40
2018-07-15T09:52:32.971Z,978.45
2018-07-15T09:53:33.227Z,978.41
2018-07-15T09:54:33.490Z,978.41
2018-07-15T09:55:33.736Z,978.37
2018-07-15T09:56:33.989Z,978.32
2018-07-15T09:57:34.247Z,978.31
2018-07-15T09:58:34.500Z,978.29
2018-07-15T09:59:34.754Z,978.33
2018-07-15T10:00:35.011Z,978.37
2018-07-15T10:01:35.267Z,978.34
2018-07-15T10:02:35.522Z,978.33
2018-07-15T10:03:35.776Z,978.37
2018-07-15T10:04:36.052Z,978.36
2018-07-15T10:05:36.285Z,978.40
2018-07-15T10:06:36.541Z,978.29
2018-07-15T10:07:36.826Z,978.34
2018-07-15T10:08:37.053Z,978.37
2018-07-15T10:09:37.309Z,978.35
2018-07-15T10:10:37.564Z,978.34
2018-07-15T10:11:37.820Z,978.28
2018-07-15T10:12:38.077Z,978.42
2018-07-15T10:13:38.333Z,978.78
2018-07-15T10:14:38.589Z,979.01
2018-07-15T10:15:38.852Z,979.04
2018-07-15T10:16:39.103Z,979.08
2018-07-15T10:17:39.360Z,979.09
2018-07-15T10:18:39.616Z,979.15
2018-07-15T10:19:39.872Z,979.16
2018-07-15T10:20:40.131Z,979.17
2018-07-15T10:21:40.390Z,979.22
2018-07-15T10:22:40.639Z,979.28
2018-07-15T10:23:40.895Z,979.21
2018-07-15T10:24:41.151Z,979.15
2018-07-15T10:25:41.407Z,979.15
2018-07-15T10:26:41.785Z,979.19
2018-07-15T10:27:41.919Z,979.25
2018-07-15T10:28:42.179Z,979.24
2018-07-15T10:29:42.430Z,979.36
2018-07-15T10:30:42.686Z,979.43
2018-07-15T10:31:42.941Z,979.48
2018-07-15T10:32:43.197Z,979.60
2018-07-15T10:33:43.452Z,979.57
2018-07-15T10:34:43.712Z,979.61
2018-07-15T10:35:43.965Z,979.56
2018-07-15T10:36:44.222Z,979.10
2018-07-15T10:37:44.481Z,978.69
2018-07-15T10:38:44.737Z,978.49
2018-07-15T10:39:44.995Z,978.41
2018-07-15T10:40:45.252Z,978.42
2018-07-15T10:41:45.510Z,978.51
2018-07-15T10:42:45.767Z,978.62
2018-07-15T10:43:46.024Z,978.83
2018-07-15T10:44:46.280Z,978.59
2018-07-15T10:45:46.540Z,978.16
2018-07-15T10:46:46.800Z,978.06
2018-07-15T10:47:47.058Z,978.06
2018-07-15T10:48:47.321Z,978.07
2018-07-15T10:49:47.579Z,978.03
2018-07-15T10:50:47.837Z,978.06
2018-07-15T10:51:48.093Z,978.06
2018-07-15T10:52:48.356Z,978.04
2018-07-15T10:53:48.609Z,978.07
2018-07-15T10:54:48.866Z,978.06
2018-07-15T10:55:49.123Z,978.04
2018-07-15T10:56:49.382Z,978.04
2018-07-15T10:57:49.640Z,978.04
2018-07-15T10:58:49.893Z,978.01
2018-07-15T10:59:50.151Z,978.05
2018-07-15T11:00:50.462Z,978.06
2018-07-15T11:01:50.667Z,978.18
2018-07-15T11:02:50.925Z,978.71
2018-07-15T11:03:51.179Z,979.17
2018-07-15T11:04:51.439Z,978.87
2018-07-15T11:05:51.697Z,978.41
2018-07-15T11:06:51.955Z,978.15
2018-07-15T11:07:52.213Z,978.20
2018-07-15T11:08:52.473Z,978.33
2018-07-15T11:09:52.729Z,978.38
2018-07-15T11:10:52.987Z,978.44
2018-07-15T11:11:53.243Z,978.78
2018-07-15T11:12:53.500Z,978.98
2018-07-15T11:13:53.758Z,978.91
2018-07-15T11:14:54.019Z,978.84
2018-07-15T11:15:54.275Z,978.66
2018-07-15T11:16:54.532Z,978.37
2018-07-15T11:17:54.794Z,978.01
2018-07-15T11:18:55.050Z,978.05
2018-07-15T11:19:55.308Z,978.15
2018-07-15T11:20:55.566Z,978.22
2018-07-15T11:21:55.825Z,978.23
2018-07-15T11:22:56.085Z,978.13
2018-07-15T11:23:56.342Z,978.18
2018-07-15T11:24:56.600Z,978.39
2018-07-15T11:25:56.861Z,978.50
2018-07-15T11:26:57.121Z,978.42
2018-07-15T11:27:57.381Z,978.42
2018-07-15T11:28:57.635Z,978.41
2018-07-15T11:29:57.898Z,978.28
2018-07-15T11:30:58.265Z,978.13
2018-07-15T11:31:58.412Z,977.99
2018-07-15T11:32:58.672Z,977.76
2018-07-15T11:33:58.930Z,977.33
2018-07-15T11:34:59.190Z,977.46
2018-07-15T11:35:59.450Z,977.38
2018-07-15T11:36:59.709Z,977.62
2018-07-15T11:37:59.968Z,977.85
2018-07-15T11:39:00.233Z,978.25
2018-07-15T11:40:00.488Z,978.04
2018-07-15T11:41:00.749Z,977.81
2018-07-15T11:42:01.008Z,977.79
2018-07-15T11:43:01.267Z,977.75
2018-07-15T11:44:01.527Z,977.71
2018-07-15T11:45:01.786Z,977.69
2018-07-15T11:46:02.046Z,977.68
2018-07-15T11:47:02.306Z,977.73
2018-07-15T11:48:02.566Z,977.74
2018-07-15T11:49:02.824Z,977.75
2018-07-15T11:50:03.089Z,977.66
2018-07-15T11:51:03.343Z,977.64
2018-07-15T11:52:03.603Z,977.62
2018-07-15T11:53:03.861Z,977.65
2018-07-15T11:54:04.119Z,977.66
2018-07-15T11:55:04.380Z,977.61
2018-07-15T11:56:04.639Z,977.59
2018-07-15T11:57:04.897Z,977.54
2018-07-15T11:58:05.158Z,977.50
2018-07-15T11:59:05.418Z,977.54
2018-07-15T12:00:05.673Z,977.53
2018-07-15T12:01:05.934Z,977.54
2018-07-15T12:02:06.193Z,977.51
2018-07-15T12:03:06.452Z,977.45
2018-07-15T12:04:06.712Z,977.46
2018-07-15T12:05:06.971Z,977.45
2018-07-15T12:06:07.231Z,977.36
2018-07-15T12:07:07.492Z,977.03
2018-07-15T12:08:07.754Z,977.07
2018-07-15T12:09:08.013Z,977.16
2018-07-15T12:10:08.272Z,977.52
2018-07-15T12:11:08.603Z,977.57
2018-07-15T12:12:08.793Z,977.28
2018-07-15T12:13:09.049Z,977.09
2018-07-15T12:14:09.310Z,977.05
2018-07-15T12:15:09.569Z,977.03
2018-07-15T12:16:09.827Z,977.09
2018-07-15T12:17:10.089Z,977.46
2018-07-15T12:18:10.343Z,977.37
2018-07-15T12:19:10.601Z,977.46
2018-07-15T12:20:10.858Z,977.44
2018-07-15T12:21:11.115Z,977.49
2018-07-15T12:22:11.373Z,977.48
2018-07-15T12:23:11.631Z,977.51
2018-07-15T12:24:11.888Z,977.53
2018-07-15T12:25:12.146Z,977.45
2018-07-15T12:26:12.403Z,977.08
2018-07-15T12:27:12.661Z,977.07
2018-07-15T12:28:12.970Z,977.42
2018-07-15T12:29:13.176Z,977.23
2018-07-15T12:30:13.432Z,977.31
2018-07-15T12:31:13.692Z,977.40